Time;durP1;ratioP1;P1;durP2;ratioP2;P2;SDS_P1;SDS_P2;PMS_P1;PMS_P2;Temp;Humidity;BMP_temperature;BMP_pressure;BME280_temperature;BME280_humidity;BME280_pressure;Samples;Min_cycle;Max_cycle;Signal;HPM_P1;HPM_P2
2024/02/15 00:00:53;;;;;;;8.40;2.93;;;13.80;99.90;;;;;;5016108;28;20436;-72
2024/02/15 00:03:19;;;;;;;6.13;2.60;;;13.80;99.90;;;;;;5015044;28;20424;-72
2024/02/15 00:05:45;;;;;;;5.43;3.20;;;13.90;99.90;;;;;;5015816;28;20435;-72
2024/02/15 00:08:12;;;;;;;3.67;2.93;;;13.80;99.90;;;;;;5016072;28;20425;-71
2024/02/15 00:10:37;;;;;;;4.73;2.67;;;13.80;99.90;;;;;;5017153;28;20499;-72
2024/02/15 00:13:04;;;;;;;5.80;3.57;;;13.80;99.90;;;;;;5013889;28;20565;-74
2024/02/15 00:15:30;;;;;;;4.10;2.80;;;13.80;99.90;;;;;;5014322;28;20208;-71
2024/02/15 00:17:56;;;;;;;4.70;2.83;;;13.80;99.90;;;;;;5016677;28;20412;-72
2024/02/15 00:20:21;;;;;;;3.37;2.50;;;13.80;99.90;;;;;;5010251;28;20585;-72
2024/02/15 00:22:47;;;;;;;4.57;2.87;;;13.80;99.90;;;;;;5012328;28;20764;-72
2024/02/15 00:25:13;;;;;;;5.07;2.70;;;13.70;99.90;;;;;;5014663;28;20222;-73
2024/02/15 00:27:39;;;;;;;5.67;2.97;;;13.70;99.90;;;;;;5016161;28;20425;-72
2024/02/15 00:30:07;;;;;;;4.40;2.50;;;13.70;99.90;;;;;;5020885;28;20415;-71
2024/02/15 00:32:33;;;;;;;6.90;3.10;;;13.70;99.90;;;;;;5013042;28;20568;-72
2024/02/15 00:34:58;;;;;;;5.27;2.83;;;13.70;99.90;;;;;;5015821;28;20462;-72
2024/02/15 00:37:24;;;;;;;6.23;2.80;;;13.60;99.90;;;;;;5014190;28;20423;-72
2024/02/15 00:39:50;;;;;;;7.87;2.97;;;13.60;99.90;;;;;;5014096;28;20235;-72
2024/02/15 00:42:15;;;;;;;3.67;2.63;;;13.60;99.90;;;;;;5019805;28;20191;-72
2024/02/15 00:44:41;;;;;;;6.63;3.40;;;13.60;99.90;;;;;;5014762;28;20226;-72
2024/02/15 00:47:09;;;;;;;7.63;2.50;;;13.60;99.90;;;;;;5015455;28;20207;-73
2024/02/15 00:49:35;;;;;;;9.63;3.00;;;13.70;99.90;;;;;;5014651;28;20196;-73
2024/02/15 00:52:01;;;;;;;6.60;3.37;;;13.80;99.90;;;;;;5015827;28;20481;-73
2024/02/15 00:54:26;;;;;;;7.87;2.90;;;13.80;99.90;;;;;;5019387;28;20451;-72
2024/02/15 00:56:52;;;;;;;4.60;2.73;;;13.80;99.90;;;;;;5019110;28;20193;-72
2024/02/15 00:59:18;;;;;;;3.80;2.83;;;13.70;99.90;;;;;;5013454;28;20721;-73
2024/02/15 01:01:44;;;;;;;6.83;3.33;;;13.60;99.90;;;;;;5009031;28;20193;-72
2024/02/15 01:04:10;;;;;;;4.70;2.93;;;13.60;99.90;;;;;;5016665;28;21082;-72
2024/02/15 01:06:36;;;;;;;9.47;3.17;;;13.60;99.90;;;;;;5015406;28;20454;-72
2024/02/15 01:09:03;;;;;;;6.30;3.43;;;13.60;99.90;;;;;;5014912;28;20428;-72
2024/02/15 01:11:29;;;;;;;5.53;3.27;;;13.60;99.90;;;;;;5015253;28;20208;-72
2024/02/15 01:13:55;;;;;;;5.47;3.37;;;13.60;99.90;;;;;;5013740;28;20881;-72
2024/02/15 01:16:21;;;;;;;10.33;3.27;;;13.50;99.90;;;;;;5008891;28;20440;-72
2024/02/15 01:18:47;;;;;;;3.50;3.00;;;13.50;99.90;;;;;;5013265;28;20442;-72
2024/02/15 01:21:13;;;;;;;5.00;3.17;;;13.50;99.90;;;;;;5012429;28;20184;-72
2024/02/15 01:23:39;;;;;;;5.73;3.50;;;13.50;99.90;;;;;;5012466;28;20276;-72
2024/02/15 01:26:04;;;;;;;5.17;2.97;;;13.40;99.90;;;;;;5012110;28;20223;-72
2024/02/15 01:28:30;;;;;;;5.77;3.30;;;13.40;99.90;;;;;;5011289;28;20838;-73
2024/02/15 01:30:56;;;;;;;8.97;3.20;;;13.40;99.90;;;;;;5015228;28;20184;-72
2024/02/15 01:33:22;;;;;;;6.33;3.47;;;13.30;99.90;;;;;;5013484;28;20599;-72
2024/02/15 01:35:48;;;;;;;8.10;3.53;;;13.30;99.90;;;;;;5012733;28;20238;-72
2024/02/15 01:38:14;;;;;;;5.67;3.20;;;13.30;99.90;;;;;;5021817;28;20168;-73
2024/02/15 01:40:40;;;;;;;5.60;3.13;;;13.40;99.90;;;;;;5010814;28;20923;-72
2024/02/15 01:43:05;;;;;;;4.87;3.20;;;13.30;99.90;;;;;;5013802;28;20502;-72
2024/02/15 01:45:31;;;;;;;5.03;3.60;;;13.30;99.90;;;;;;5009016;28;20204;-72
2024/02/15 01:47:57;;;;;;;5.57;3.33;;;13.30;99.90;;;;;;5015688;28;20189;-72
2024/02/15 01:50:24;;;;;;;6.50;3.17;;;13.30;99.90;;;;;;5017534;28;20194;-73
2024/02/15 01:52:54;;;;;;;5.27;3.10;;;13.40;99.90;;;;;;5012190;28;20968;-73
2024/02/15 01:55:21;;;;;;;7.20;3.13;;;13.40;99.90;;;;;;5014564;28;20455;-72
2024/02/15 01:57:48;;;;;;;4.57;3.53;;;13.40;99.90;;;;;;5017918;28;20933;-73
2024/02/15 02:00:19;;;;;;;5.20;3.83;;;13.30;99.90;;;;;;5016231;28;20420;-72
2024/02/15 02:02:45;;;;;;;7.33;3.43;;;13.30;99.90;;;;;;5014080;28;20424;-72
2024/02/15 02:05:11;;;;;;;4.37;3.00;;;13.30;99.90;;;;;;5013348;28;20487;-72
2024/02/15 02:07:37;;;;;;;6.03;3.63;;;13.40;99.90;;;;;;5011471;28;20460;-73
2024/02/15 02:10:04;;;;;;;5.80;3.60;;;13.40;99.90;;;;;;5011708;28;20186;-73
2024/02/15 02:12:31;;;;;;;4.50;3.60;;;13.30;99.90;;;;;;5014035;28;20486;-73
2024/02/15 02:14:56;;;;;;;7.20;3.90;;;13.30;99.90;;;;;;5016767;28;20501;-72
2024/02/15 02:17:23;;;;;;;4.93;3.50;;;13.40;99.90;;;;;;5015146;28;20872;-73
2024/02/15 02:19:52;;;;;;;5.70;3.53;;;13.40;99.90;;;;;;5012212;28;20259;-73
2024/02/15 02:22:19;;;;;;;5.93;3.40;;;13.40;99.90;;;;;;5012091;28;20420;-73
2024/02/15 02:25:06;;;;;;;4.90;3.43;;;13.40;99.90;;;;;;5011942;28;20960;-73
2024/02/15 02:27:38;;;;;;;6.63;3.33;;;13.40;99.90;;;;;;5010871;28;21005;-72
2024/02/15 02:30:19;;;;;;;5.10;3.50;;;13.40;99.90;;;;;;5017258;28;20779;-73
2024/02/15 02:32:46;;;;;;;6.40;3.30;;;13.40;99.90;;;;;;5009190;28;20492;-73
2024/02/15 02:35:12;;;;;;;3.87;3.20;;;13.30;99.90;;;;;;5016482;28;20431;-71
2024/02/15 02:37:41;;;;;;;7.80;3.83;;;13.30;99.90;;;;;;5013796;28;20416;-71
2024/02/15 02:40:12;;;;;;;6.20;3.43;;;13.40;99.90;;;;;;5012646;28;20448;-71
2024/02/15 02:42:51;;;;;;;5.60;3.40;;;13.30;99.90;;;;;;5015503;28;20942;-72
2024/02/15 02:45:22;;;;;;;6.97;3.33;;;13.40;99.90;;;;;;5012274;28;20447;-72
2024/02/15 02:47:48;;;;;;;5.07;3.37;;;13.30;99.90;;;;;;5012144;28;20427;-71
2024/02/15 02:50:14;;;;;;;5.07;3.07;;;13.40;99.90;;;;;;5021275;28;20516;-71
2024/02/15 02:52:40;;;;;;;6.80;3.87;;;13.40;99.90;;;;;;5015981;28;20591;-71
2024/02/15 02:55:09;;;;;;;5.87;3.70;;;13.30;99.90;;;;;;5015711;28;20204;-71
2024/02/15 02:57:38;;;;;;;9.73;3.70;;;13.20;99.90;;;;;;5014135;28;20913;-71
2024/02/15 03:00:12;;;;;;;5.00;3.60;;;13.30;99.90;;;;;;5017802;28;20432;-71
2024/02/15 03:02:38;;;;;;;8.43;3.20;;;13.30;99.90;;;;;;5013912;28;20515;-72
2024/02/15 03:05:04;;;;;;;4.93;3.30;;;13.30;99.90;;;;;;5017722;28;20478;-72
2024/02/15 03:07:33;;;;;;;4.43;3.27;;;13.20;99.90;;;;;;5013508;28;20436;-72
2024/02/15 03:09:59;;;;;;;5.87;3.43;;;13.20;99.90;;;;;;5019441;28;20472;-72
2024/02/15 03:12:26;;;;;;;6.33;3.33;;;13.30;99.90;;;;;;5011749;28;21269;-72
2024/02/15 03:14:52;;;;;;;7.90;3.63;;;13.30;99.90;;;;;;5012947;28;20239;-72
2024/02/15 03:17:18;;;;;;;5.80;4.53;;;13.20;99.90;;;;;;5020719;28;20848;-72
2024/02/15 03:19:43;;;;;;;10.77;3.47;;;13.20;99.90;;;;;;5018078;28;20223;-72
2024/02/15 03:22:09;;;;;;;4.60;4.00;;;13.20;99.90;;;;;;5020852;28;20259;-72
2024/02/15 03:24:35;;;;;;;6.57;4.17;;;13.20;99.90;;;;;;5010151;28;20320;-72
2024/02/15 03:27:01;;;;;;;6.90;3.50;;;13.20;99.90;;;;;;5016888;28;20514;-72
2024/02/15 03:29:27;;;;;;;6.67;3.57;;;13.30;99.90;;;;;;5018309;28;20192;-72
2024/02/15 03:31:53;;;;;;;9.30;3.50;;;13.30;99.90;;;;;;5013544;28;20212;-72
2024/02/15 03:34:21;;;;;;;5.17;4.40;;;13.20;99.90;;;;;;5014215;28;20247;-72
2024/02/15 03:36:51;;;;;;;4.63;3.23;;;13.20;99.90;;;;;;5017772;28;20440;-72
2024/02/15 03:39:17;;;;;;;5.30;3.00;;;13.20;99.90;;;;;;5018750;28;20435;-73
2024/02/15 03:41:45;;;;;;;5.30;3.90;;;13.30;99.90;;;;;;5020536;28;20501;-72
2024/02/15 03:44:12;;;;;;;5.60;3.00;;;13.20;99.90;;;;;;5019408;28;20722;-73
2024/02/15 03:46:37;;;;;;;7.10;2.93;;;13.20;99.90;;;;;;5019000;28;20473;-73
2024/02/15 03:49:03;;;;;;;6.57;3.67;;;13.20;99.90;;;;;;5018515;28;20436;-72
2024/02/15 03:51:29;;;;;;;4.90;3.10;;;13.20;99.90;;;;;;5018693;28;20241;-72
2024/02/15 03:53:54;;;;;;;5.27;3.50;;;13.20;99.90;;;;;;5015418;28;20280;-72
2024/02/15 03:56:23;;;;;;;4.77;3.33;;;13.20;99.90;;;;;;5016213;28;20630;-72
2024/02/15 03:58:50;;;;;;;5.73;4.20;;;13.20;99.90;;;;;;5012758;28;20231;-72
2024/02/15 04:01:16;;;;;;;6.60;3.73;;;13.20;99.90;;;;;;5010972;28;20436;-72
2024/02/15 04:03:41;;;;;;;6.77;3.30;;;13.20;99.90;;;;;;5011711;28;20470;-72
2024/02/15 04:06:07;;;;;;;8.33;3.43;;;13.20;99.90;;;;;;5018487;28;20415;-72
2024/02/15 04:08:33;;;;;;;3.90;3.40;;;13.20;99.90;;;;;;5015266;28;20655;-72
2024/02/15 04:10:59;;;;;;;6.50;3.50;;;13.20;99.90;;;;;;5020560;28;20220;-72
2024/02/15 04:13:25;;;;;;;5.30;3.43;;;13.20;99.90;;;;;;5017435;28;21035;-72
2024/02/15 04:15:52;;;;;;;7.10;3.50;;;13.20;99.90;;;;;;5014154;28;20442;-72
2024/02/15 04:18:19;;;;;;;5.30;3.37;;;13.20;99.90;;;;;;5015042;28;20575;-72
2024/02/15 04:20:46;;;;;;;5.63;3.13;;;13.20;99.90;;;;;;5013357;28;20428;-71
2024/02/15 04:23:12;;;;;;;8.23;3.40;;;13.10;99.90;;;;;;5013619;28;20443;-71
2024/02/15 04:25:37;;;;;;;7.27;3.30;;;13.10;99.90;;;;;;5013321;28;20443;-72
2024/02/15 04:28:03;;;;;;;4.10;3.10;;;13.20;99.90;;;;;;5016362;28;20902;-72
2024/02/15 04:30:30;;;;;;;4.33;3.43;;;13.20;99.90;;;;;;5017709;28;20292;-72
2024/02/15 04:32:56;;;;;;;6.20;3.50;;;13.10;99.90;;;;;;5013901;28;20495;-72
2024/02/15 04:35:22;;;;;;;5.10;3.63;;;13.10;99.90;;;;;;5015719;28;20490;-71
2024/02/15 04:37:49;;;;;;;5.60;3.77;;;13.10;99.90;;;;;;5020352;28;20184;-72
2024/02/15 04:40:14;;;;;;;5.00;3.77;;;13.10;99.90;;;;;;5013115;28;20452;-72
2024/02/15 04:42:43;;;;;;;5.87;3.90;;;13.10;99.90;;;;;;5018880;28;20450;-72
2024/02/15 04:45:10;;;;;;;7.87;3.77;;;13.10;99.90;;;;;;5019804;28;20219;-72
2024/02/15 04:47:36;;;;;;;7.70;3.70;;;13.10;99.90;;;;;;5017518;28;20498;-71
2024/02/15 04:50:05;;;;;;;8.23;3.30;;;13.10;99.90;;;;;;5017685;28;20866;-72
2024/02/15 04:52:31;;;;;;;4.53;3.43;;;13.10;99.90;;;;;;5021276;28;20494;-72
2024/02/15 04:54:58;;;;;;;6.70;3.30;;;13.10;99.90;;;;;;5009452;28;20932;-71
2024/02/15 04:57:25;;;;;;;6.60;3.53;;;13.10;99.90;;;;;;5016089;28;20248;-71
2024/02/15 04:59:51;;;;;;;9.80;3.90;;;13.10;99.90;;;;;;5017879;28;20471;-72
2024/02/15 05:02:17;;;;;;;7.50;4.00;;;13.10;99.90;;;;;;5018793;28;20431;-72
2024/02/15 05:04:42;;;;;;;8.50;3.23;;;13.10;99.90;;;;;;5007901;28;20223;-71
2024/02/15 05:07:13;;;;;;;5.57;3.30;;;13.10;99.90;;;;;;5012847;28;20752;-72
2024/02/15 05:09:40;;;;;;;6.00;3.70;;;13.10;99.90;;;;;;5011842;28;20193;-72
2024/02/15 05:12:06;;;;;;;5.57;3.50;;;13.10;99.90;;;;;;5016366;28;20460;-71
2024/02/15 05:14:31;;;;;;;6.60;3.57;;;13.10;99.90;;;;;;5015223;28;20435;-71
2024/02/15 05:16:59;;;;;;;5.40;3.27;;;13.10;99.90;;;;;;5013123;28;20184;-72
2024/02/15 05:19:24;;;;;;;10.03;3.50;;;13.10;99.90;;;;;;5012196;28;20621;-72
2024/02/15 05:21:50;;;;;;;4.73;3.33;;;13.10;99.90;;;;;;5013295;28;20787;-72
2024/02/15 05:24:17;;;;;;;4.50;3.50;;;13.10;99.90;;;;;;5012796;28;20203;-72
2024/02/15 05:26:46;;;;;;;5.67;3.13;;;13.10;99.90;;;;;;5014026;28;20212;-73
2024/02/15 05:29:13;;;;;;;6.30;3.13;;;13.10;99.90;;;;;;5012726;28;20952;-72
2024/02/15 05:31:39;;;;;;;4.43;3.37;;;13.20;99.90;;;;;;5008998;28;21000;-72
2024/02/15 05:34:11;;;;;;;8.43;3.67;;;13.10;99.90;;;;;;5011501;28;20896;-73
2024/02/15 05:36:38;;;;;;;3.80;2.77;;;13.10;99.90;;;;;;5015614;28;20419;-72
2024/02/15 05:39:05;;;;;;;3.83;3.40;;;13.00;99.90;;;;;;5011553;28;20928;-72
2024/02/15 05:41:32;;;;;;;5.60;3.13;;;13.10;99.90;;;;;;5014418;28;20861;-73
2024/02/15 05:43:58;;;;;;;6.80;3.23;;;13.10;99.90;;;;;;5013536;28;20538;-72
2024/02/15 05:46:24;;;;;;;4.87;3.10;;;13.00;99.90;;;;;;5018036;28;20588;-73
2024/02/15 05:48:51;;;;;;;5.37;2.80;;;13.00;99.90;;;;;;5011757;28;20197;-72
2024/02/15 05:51:17;;;;;;;7.07;3.67;;;13.10;99.90;;;;;;5013710;28;20511;-72
2024/02/15 05:53:43;;;;;;;4.90;2.57;;;13.10;99.90;;;;;;5014082;28;20885;-72
2024/02/15 05:56:13;;;;;;;5.67;3.23;;;13.00;99.90;;;;;;5013111;28;20419;-72
2024/02/15 05:58:42;;;;;;;4.47;3.07;;;13.00;99.90;;;;;;5018465;28;20427;-72
2024/02/15 06:01:11;;;;;;;5.73;3.00;;;13.00;99.90;;;;;;5012192;28;20515;-73
2024/02/15 06:03:38;;;;;;;4.50;2.80;;;13.00;99.90;;;;;;5018118;28;20929;-72
2024/02/15 06:06:07;;;;;;;5.77;2.60;;;13.00;99.90;;;;;;5012792;28;20443;-71
2024/02/15 06:08:34;;;;;;;4.00;2.33;;;13.00;99.90;;;;;;5012279;28;20415;-72
2024/02/15 06:10:59;;;;;;;6.43;2.53;;;13.00;99.90;;;;;;5012649;28;20424;-72
2024/02/15 06:13:26;;;;;;;4.93;2.30;;;12.90;99.90;;;;;;5015951;28;20439;-72
2024/02/15 06:15:55;;;;;;;5.17;2.40;;;12.90;99.90;;;;;;5013867;28;20886;-72
2024/02/15 06:18:23;;;;;;;4.87;2.47;;;12.90;99.90;;;;;;5014322;28;20505;-72
2024/02/15 06:20:50;;;;;;;5.60;2.60;;;12.90;99.90;;;;;;5013624;28;20861;-72
2024/02/15 06:23:20;;;;;;;5.13;2.60;;;13.00;99.90;;;;;;5010899;28;20775;-72
2024/02/15 06:25:50;;;;;;;4.90;2.60;;;12.90;99.90;;;;;;5011605;28;20450;-72
2024/02/15 06:39:37;;;;;;;8.60;2.93;;;12.90;99.90;;;;;;5016110;28;20416;-72
2024/02/15 06:39:42;;;;;;;4.33;2.70;;;12.80;99.90;;;;;;5016347;28;20956;-72
2024/02/15 06:42:10;;;;;;;4.93;3.00;;;12.80;99.90;;;;;;5018725;28;20530;-72
2024/02/15 06:44:36;;;;;;;7.40;2.27;;;12.80;99.90;;;;;;5013861;28;20798;-72
2024/02/15 06:47:01;;;;;;;5.60;3.00;;;12.80;99.90;;;;;;5008824;28;20485;-72
2024/02/15 06:49:27;;;;;;;5.60;2.97;;;12.80;99.90;;;;;;5016350;28;20707;-73
2024/02/15 06:51:53;;;;;;;4.93;3.23;;;12.80;99.90;;;;;;5019395;28;20205;-71
2024/02/15 06:54:18;;;;;;;4.30;2.77;;;12.80;99.90;;;;;;5023773;28;20192;-71
2024/02/15 06:56:47;;;;;;;10.00;3.17;;;12.80;99.90;;;;;;5017560;28;20250;-72
2024/02/15 06:59:20;;;;;;;9.73;5.00;;;12.80;99.90;;;;;;5014113;28;20216;-72
2024/02/15 07:01:45;;;;;;;6.23;3.00;;;12.80;99.90;;;;;;5019360;28;20418;-71
2024/02/15 07:04:11;;;;;;;7.67;3.57;;;12.80;99.90;;;;;;5015095;28;20918;-72
2024/02/15 07:06:38;;;;;;;4.73;3.10;;;12.80;99.90;;;;;;5012975;28;20284;-73
2024/02/15 07:09:04;;;;;;;5.63;3.10;;;12.80;99.90;;;;;;5020428;28;20193;-73
2024/02/15 07:11:32;;;;;;;12.13;2.90;;;12.80;99.90;;;;;;5021113;28;20471;-73
2024/02/15 07:13:57;;;;;;;6.30;3.10;;;12.80;99.90;;;;;;5020423;28;20451;-72
2024/02/15 07:16:23;;;;;;;5.70;3.00;;;12.90;99.90;;;;;;5015125;28;21114;-72
2024/02/15 07:18:49;;;;;;;6.53;3.50;;;12.80;99.90;;;;;;5019786;28;20189;-72
2024/02/15 07:21:16;;;;;;;7.30;4.23;;;12.90;99.90;;;;;;5019399;28;20177;-73
2024/02/15 07:23:42;;;;;;;7.10;3.63;;;12.90;99.90;;;;;;5015954;28;20439;-73
2024/02/15 07:26:08;;;;;;;6.97;3.70;;;12.90;99.90;;;;;;5019060;28;20477;-73
2024/02/15 07:28:34;;;;;;;4.67;3.30;;;13.00;99.90;;;;;;5022420;28;20415;-73
2024/02/15 07:31:02;;;;;;;5.70;2.70;;;13.00;99.90;;;;;;5011103;28;20280;-73
2024/02/15 07:33:28;;;;;;;6.43;3.20;;;13.00;99.90;;;;;;5018030;28;20418;-74
2024/02/15 07:35:56;;;;;;;7.10;3.80;;;13.10;99.90;;;;;;5017319;28;20416;-74
2024/02/15 07:38:25;;;;;;;5.77;2.77;;;13.10;99.90;;;;;;5015165;28;20412;-72
2024/02/15 07:40:51;;;;;;;8.00;3.57;;;13.10;99.90;;;;;;5009187;28;20531;-73
2024/02/15 07:43:16;;;;;;;5.57;3.20;;;13.10;99.90;;;;;;5017348;28;20514;-72
2024/02/15 07:45:43;;;;;;;4.67;2.60;;;13.20;99.90;;;;;;5017717;28;20287;-72
2024/02/15 07:48:09;;;;;;;5.03;3.30;;;13.20;99.90;;;;;;5012881;28;20784;-72
2024/02/15 07:50:37;;;;;;;5.53;2.90;;;13.20;99.90;;;;;;5019033;28;20434;-72
2024/02/15 07:53:03;;;;;;;5.30;2.97;;;13.20;99.90;;;;;;5013728;28;20464;-73
2024/02/15 07:55:28;;;;;;;4.30;2.57;;;13.30;99.90;;;;;;5013747;28;20478;-72
2024/02/15 07:57:55;;;;;;;4.40;3.47;;;13.30;99.90;;;;;;5011002;28;20667;-72
2024/02/15 08:00:21;;;;;;;5.10;3.43;;;13.30;99.90;;;;;;5018156;28;20193;-72
2024/02/15 08:02:47;;;;;;;11.30;3.73;;;13.40;99.90;;;;;;5018664;28;20435;-72
2024/02/15 08:05:14;;;;;;;6.80;3.60;;;13.40;99.90;;;;;;5018824;28;20204;-71
2024/02/15 08:07:44;;;;;;;11.13;4.60;;;13.40;99.90;;;;;;5011736;28;20426;-71
2024/02/15 08:10:14;;;;;;;6.83;4.00;;;13.40;99.90;;;;;;5035005;28;20995;-72
2024/02/15 08:12:44;;;;;;;6.43;3.93;;;13.40;99.90;;;;;;5029110;28;20840;-71
2024/02/15 08:15:13;;;;;;;5.70;3.30;;;13.40;99.90;;;;;;5017696;28;20800;-71
2024/02/15 08:17:40;;;;;;;6.00;3.47;;;13.30;99.90;;;;;;5017795;28;21085;-71
2024/02/15 08:20:09;;;;;;;7.00;3.47;;;13.30;99.90;;;;;;5019222;28;20467;-71
2024/02/15 08:22:38;;;;;;;5.40;3.47;;;13.40;99.90;;;;;;5014621;28;20475;-71
2024/02/15 08:25:15;;;;;;;5.73;3.70;;;13.40;99.90;;;;;;5012380;28;20518;-69
2024/02/15 08:27:44;;;;;;;5.83;3.70;;;13.40;99.90;;;;;;5017038;28;20846;-69
2024/02/15 08:30:14;;;;;;;6.03;3.67;;;13.40;99.90;;;;;;5012691;28;20439;-70
2024/02/15 08:32:41;;;;;;;12.13;4.17;;;13.30;99.90;;;;;;5012535;28;20459;-69
2024/02/15 08:35:12;;;;;;;9.00;4.40;;;13.30;99.90;;;;;;5020402;28;21021;-71
2024/02/15 08:37:38;;;;;;;10.67;3.60;;;13.30;99.90;;;;;;5018882;28;20804;-71
2024/02/15 08:40:13;;;;;;;6.77;4.27;;;13.40;99.90;;;;;;5022755;28;20438;-71
2024/02/15 08:42:40;;;;;;;10.20;4.07;;;13.40;99.90;;;;;;5022793;28;20425;-71
2024/02/15 08:45:08;;;;;;;12.90;4.80;;;13.50;99.90;;;;;;5024682;28;20506;-73
2024/02/15 08:47:38;;;;;;;5.40;4.03;;;13.50;99.90;;;;;;5026806;28;20426;-71
2024/02/15 08:50:05;;;;;;;9.40;4.30;;;13.50;99.90;;;;;;5011425;28;20439;-72
2024/02/15 08:52:30;;;;;;;9.90;3.50;;;13.50;99.90;;;;;;5024202;28;20470;-68
2024/02/15 08:54:58;;;;;;;10.27;4.23;;;13.60;99.90;;;;;;5023148;28;20999;-67
2024/02/15 08:57:24;;;;;;;5.80;4.10;;;13.60;99.90;;;;;;5028667;28;20254;-68
2024/02/15 08:59:51;;;;;;;10.80;4.13;;;13.70;99.90;;;;;;5023558;28;21098;-70
2024/02/15 09:02:18;;;;;;;4.57;3.70;;;13.70;99.90;;;;;;5023451;28;20419;-69
2024/02/15 09:04:43;;;;;;;6.30;3.80;;;13.80;99.90;;;;;;5012017;28;20495;-69
2024/02/15 09:07:09;;;;;;;9.70;3.93;;;13.80;99.90;;;;;;5015901;28;20451;-70
2024/02/15 09:09:36;;;;;;;12.10;6.23;;;13.80;99.90;;;;;;5025904;28;20267;-71
2024/02/15 09:12:05;;;;;;;7.83;3.73;;;13.90;99.90;;;;;;5016126;28;20208;-72
2024/02/15 09:14:34;;;;;;;11.00;3.67;;;13.90;99.90;;;;;;5018642;28;20450;-71
2024/02/15 09:17:00;;;;;;;5.90;3.50;;;14.00;99.90;;;;;;5012174;28;20433;-71
2024/02/15 09:19:26;;;;;;;7.93;3.57;;;14.00;99.90;;;;;;5013045;28;20510;-71
2024/02/15 09:21:51;;;;;;;7.50;3.00;;;14.10;99.90;;;;;;5019935;28;21123;-71
2024/02/15 09:24:17;;;;;;;6.10;3.60;;;14.10;99.90;;;;;;5014362;28;20554;-71
2024/02/15 09:26:44;;;;;;;8.97;3.17;;;14.10;99.90;;;;;;5013937;28;20219;-71
2024/02/15 09:29:10;;;;;;;5.23;3.37;;;14.10;99.90;;;;;;5016757;28;20192;-72
2024/02/15 09:31:36;;;;;;;4.77;2.93;;;14.20;99.90;;;;;;5017126;28;20802;-72
2024/02/15 09:34:05;;;;;;;4.57;3.10;;;14.20;99.90;;;;;;5016933;28;20583;-71
2024/02/15 09:36:35;;;;;;;4.70;2.73;;;14.20;99.90;;;;;;5015759;28;20424;-71
2024/02/15 09:39:00;;;;;;;7.40;3.50;;;14.30;99.90;;;;;;5020158;28;20426;-71
2024/02/15 09:41:26;;;;;;;12.50;3.40;;;14.30;99.90;;;;;;5024479;28;20843;-71
2024/02/15 09:43:52;;;;;;;6.47;4.07;;;14.40;99.90;;;;;;5017974;28;20211;-72
2024/02/15 09:46:17;;;;;;;6.13;2.70;;;14.50;99.90;;;;;;5020181;28;20707;-71
2024/02/15 09:48:51;;;;;;;5.47;4.20;;;14.50;99.90;;;;;;5023398;28;20235;-71
2024/02/15 09:51:21;;;;;;;7.10;3.40;;;14.60;99.90;;;;;;5024216;28;20181;-71
2024/02/15 09:53:47;;;;;;;4.03;3.20;;;14.70;99.90;;;;;;5024376;28;20439;-71
2024/02/15 09:56:15;;;;;;;7.60;3.80;;;14.70;99.90;;;;;;5023372;28;20421;-71
2024/02/15 09:58:41;;;;;;;5.83;3.03;;;14.80;99.90;;;;;;5023133;28;20411;-71
2024/02/15 10:01:10;;;;;;;7.13;3.23;;;15.00;99.90;;;;;;5010979;28;20781;-71
2024/02/15 10:03:40;;;;;;;4.77;3.50;;;15.00;99.90;;;;;;5015315;28;20459;-70
2024/02/15 10:06:06;;;;;;;8.97;4.13;;;15.10;99.90;;;;;;5010868;28;20428;-71
2024/02/15 10:08:31;;;;;;;5.20;3.37;;;15.30;99.90;;;;;;5016733;28;20438;-70
2024/02/15 10:11:09;;;;;;;5.40;3.00;;;15.40;99.90;;;;;;5010017;28;20196;-71
2024/02/15 10:13:36;;;;;;;4.10;2.93;;;15.50;99.90;;;;;;5013417;28;20257;-69
2024/02/15 10:16:35;;;;;;;7.90;2.93;;;15.60;99.90;;;;;;5011287;28;20427;-70
2024/02/15 10:19:10;;;;;;;5.33;2.87;;;15.70;99.90;;;;;;5013310;28;20534;-71
2024/02/15 10:21:35;;;;;;;6.37;3.03;;;15.90;99.90;;;;;;5013694;28;20902;-70
2024/02/15 10:24:08;;;;;;;9.03;3.17;;;16.00;99.90;;;;;;5013352;28;20466;-70
2024/02/15 10:26:35;;;;;;;8.27;3.60;;;16.10;99.90;;;;;;5015314;28;20204;-70
2024/02/15 10:29:11;;;;;;;6.93;3.70;;;16.20;99.90;;;;;;5015950;28;20475;-70
2024/02/15 10:31:51;;;;;;;3.73;2.70;;;16.30;99.90;;;;;;5011686;28;20459;-69
2024/02/15 10:34:18;;;;;;;5.50;3.10;;;16.40;99.90;;;;;;5012532;28;20512;-70
2024/02/15 10:36:45;;;;;;;5.50;2.97;;;16.60;99.90;;;;;;5013906;28;20424;-71
2024/02/15 10:39:20;;;;;;;6.57;2.73;;;16.60;99.90;;;;;;5014378;28;20513;-72
2024/02/15 10:41:51;;;;;;;6.03;3.17;;;16.70;99.90;;;;;;5018118;28;20434;-71
2024/02/15 10:44:22;;;;;;;11.87;3.30;;;16.80;99.90;;;;;;5014498;28;20439;-72
2024/02/15 10:46:50;;;;;;;5.37;3.17;;;16.90;99.90;;;;;;5010478;28;20452;-69
2024/02/15 10:49:20;;;;;;;6.83;3.00;;;17.00;99.90;;;;;;5013149;28;20431;-70
2024/02/15 10:51:55;;;;;;;5.37;3.13;;;17.00;99.90;;;;;;5014942;28;20467;-70
2024/02/15 10:55:03;;;;;;;5.20;3.43;;;17.10;99.90;;;;;;5008300;28;20438;-69
2024/02/15 10:57:36;;;;;;;5.93;3.17;;;17.20;99.90;;;;;;5012165;28;20459;-69
2024/02/15 11:00:10;;;;;;;6.80;3.87;;;17.30;99.90;;;;;;5013499;28;20439;-69
2024/02/15 11:02:45;;;;;;;6.57;3.17;;;17.30;99.90;;;;;;5013002;28;20422;-69
2024/02/15 11:05:14;;;;;;;5.20;3.00;;;17.30;99.90;;;;;;5008117;28;20466;-70
2024/02/15 11:07:40;;;;;;;5.00;3.17;;;17.40;99.90;;;;;;5010008;28;20941;-70
2024/02/15 11:10:08;;;;;;;7.03;3.60;;;17.50;99.90;;;;;;5007583;28;20424;-70
2024/02/15 11:12:34;;;;;;;9.03;2.80;;;17.60;99.90;;;;;;5013696;28;20491;-70
2024/02/15 11:15:00;;;;;;;6.43;2.93;;;17.60;99.90;;;;;;5009102;28;20521;-70
2024/02/15 11:17:43;;;;;;;4.97;3.00;;;17.60;99.90;;;;;;5014384;28;20482;-70
2024/02/15 11:20:11;;;;;;;6.70;2.87;;;17.80;99.90;;;;;;5015218;28;20434;-71
2024/02/15 11:22:37;;;;;;;6.90;3.67;;;17.90;99.90;;;;;;5015427;28;20415;-70
2024/02/15 11:25:11;;;;;;;4.10;2.30;;;17.80;99.90;;;;;;5017150;28;20475;-71
2024/02/15 11:27:39;;;;;;;3.60;2.57;;;17.70;99.90;;;;;;5017978;28;21120;-72
2024/02/15 11:30:15;;;;;;;6.37;3.00;;;17.80;99.90;;;;;;5012059;28;20447;-71
2024/02/15 11:32:47;;;;;;;3.83;2.50;;;17.90;99.90;;;;;;5013520;28;20882;-73
2024/02/15 11:35:22;;;;;;;4.20;2.30;;;18.00;99.90;;;;;;5016664;28;20446;-72
2024/02/15 11:37:48;;;;;;;4.00;2.60;;;18.10;99.90;;;;;;5013854;28;20423;-72
2024/02/15 11:40:16;;;;;;;4.33;3.33;;;18.20;99.90;;;;;;5015159;28;20522;-72
2024/02/15 11:42:43;;;;;;;5.10;2.60;;;18.30;99.90;;;;;;5017874;28;20189;-72
2024/02/15 11:45:09;;;;;;;6.00;2.50;;;18.30;99.90;;;;;;5017274;28;20451;-71
2024/02/15 11:47:48;;;;;;;5.00;2.13;;;18.40;99.90;;;;;;5017567;28;20482;-70
2024/02/15 11:50:17;;;;;;;5.67;2.70;;;18.40;99.90;;;;;;5008162;28;20861;-70
2024/02/15 11:52:48;;;;;;;4.50;2.40;;;18.40;99.90;;;;;;5017409;28;20482;-69
2024/02/15 11:55:21;;;;;;;4.73;2.70;;;18.40;99.90;;;;;;5035500;28;20446;-69
2024/02/15 11:58:41;;;;;;;5.00;2.40;;;18.40;99.90;;;;;;5012689;28;20816;-69
2024/02/15 12:20:11;;;;;;;3.93;2.57;;;20.70;99.90;;;;;;5015808;28;20418;-69
2024/02/15 12:22:45;;;;;;;7.23;3.73;;;21.00;99.90;;;;;;5018444;28;20431;-69
2024/02/15 12:25:21;;;;;;;8.77;6.00;;;21.20;99.90;;;;;;5013851;28;20929;-69
2024/02/15 12:27:56;;;;;;;3.60;2.60;;;21.30;99.90;;;;;;5012327;28;20518;-70
2024/02/15 12:30:22;;;;;;;8.47;3.80;;;21.40;99.90;;;;;;5018974;28;20560;-69
2024/02/15 12:32:50;;;;;;;5.33;4.20;;;21.70;99.90;;;;;;5012080;28;20506;-69
2024/02/15 12:35:20;;;;;;;4.87;3.07;;;21.90;99.90;;;;;;5015751;28;20475;-70
2024/02/15 12:37:46;;;;;;;5.40;2.87;;;22.00;99.90;;;;;;5018533;28;20426;-69
2024/02/15 12:40:16;;;;;;;3.70;2.90;;;22.10;99.90;;;;;;5011942;28;20412;-69
2024/02/15 12:42:52;;;;;;;5.40;2.80;;;22.20;99.90;;;;;;5019907;28;20827;-69
2024/02/15 12:45:20;;;;;;;4.23;2.53;;;22.10;99.90;;;;;;5014549;28;20434;-69
2024/02/15 12:47:55;;;;;;;5.17;2.60;;;22.10;99.90;;;;;;5016633;28;20942;-69
2024/02/15 12:50:22;;;;;;;5.27;2.93;;;22.20;99.90;;;;;;5014045;28;20796;-69
2024/02/15 12:52:49;;;;;;;7.30;2.60;;;22.20;99.90;;;;;;5015251;28;20472;-69
2024/02/15 12:55:17;;;;;;;4.67;2.50;;;22.20;99.90;;;;;;5015560;28;21370;-69
2024/02/15 12:57:45;;;;;;;4.47;2.57;;;22.10;99.90;;;;;;5014489;28;20470;-68
2024/02/15 13:00:17;;;;;;;4.60;2.90;;;22.10;99.90;;;;;;5017863;28;20450;-68
2024/02/15 13:02:44;;;;;;;4.17;2.60;;;22.10;99.90;;;;;;5016908;28;20428;-69
2024/02/15 13:05:11;;;;;;;3.70;2.73;;;22.00;99.90;;;;;;5013418;28;20546;-69
2024/02/15 13:07:37;;;;;;;3.80;2.50;;;21.80;99.90;;;;;;5019218;28;20511;-69
2024/02/15 13:10:06;;;;;;;3.87;2.57;;;21.70;99.90;;;;;;5016395;28;20427;-69
2024/02/15 13:12:36;;;;;;;7.30;2.80;;;21.60;99.90;;;;;;5017513;28;20784;-69
2024/02/15 13:15:06;;;;;;;5.13;3.23;;;21.50;99.90;;;;;;5011708;28;20467;-69
2024/02/15 13:17:33;;;;;;;3.60;2.60;;;21.40;99.90;;;;;;5015563;28;20411;-68